createdAt,value
2023-02-20T00:03:09.120Z,1.92
2023-02-20T00:08:05.391Z,1.48
2023-02-20T00:13:01.659Z,1.92
2023-02-20T00:17:57.916Z,1.1400000000000001
2023-02-20T00:22:55.171Z,2.1
2023-02-20T00:27:51.389Z,1.3399999999999999
2023-02-20T00:32:48.681Z,1.56
2023-02-20T00:37:44.953Z,1.44
2023-02-20T00:42:41.219Z,1.36
2023-02-20T00:47:37.482Z,1.2
2023-02-20T00:52:33.714Z,1.1600000000000001
2023-02-20T00:57:29.999Z,1.22
2023-02-20T01:02:26.274Z,1.42
2023-02-20T01:07:22.497Z,1.4
2023-02-20T01:12:18.732Z,1.16
2023-02-20T01:17:17.033Z,1.6400000000000001
2023-02-20T01:22:13.299Z,1.46
2023-02-20T01:27:08.547Z,1.48
2023-02-20T01:32:04.965Z,1.3399999999999999
2023-02-20T01:37:00.037Z,1.48
2023-02-20T01:41:58.313Z,1.7599999999999998
2023-02-20T01:47:01.592Z,1.72
2023-02-20T01:52:02.836Z,1.36
2023-02-20T01:57:01.104Z,1.7
2023-02-20T02:01:57.381Z,1.7
2023-02-20T02:06:53.576Z,1.48
2023-02-20T02:11:51.831Z,1.5599999999999998
2023-02-20T02:16:58.032Z,1.5
2023-02-20T02:22:13.276Z,2.1399999999999997
2023-02-20T02:27:26.480Z,2.04
2023-02-20T02:32:35.743Z,2.1399999999999997
2023-02-20T02:37:38.932Z,2.7
2023-02-20T02:42:42.211Z,2.0799999999999996
2023-02-20T02:47:48.436Z,2.44
2023-02-20T02:52:44.721Z,2.1399999999999997
2023-02-20T02:57:49.904Z,1.8400000000000003
2023-02-20T03:02:50.269Z,1.8
2023-02-20T03:07:48.428Z,1.8199999999999998
2023-02-20T03:12:45.710Z,1.5599999999999998
2023-02-20T03:17:47.910Z,1.6800000000000002
2023-02-20T03:22:49.185Z,1.3399999999999999
2023-02-20T03:27:47.461Z,1.7399999999999998
2023-02-20T03:32:46.704Z,1.8199999999999998
2023-02-20T03:37:44.922Z,1.5399999999999998
2023-02-20T03:42:45.183Z,2.1399999999999997
2023-02-20T03:47:44.455Z,1.7
2023-02-20T03:52:40.699Z,1.72
2023-02-20T03:57:41.968Z,2.0799999999999996
2023-02-20T04:02:43.257Z,2.38
2023-02-20T04:07:43.448Z,2.0599999999999996
2023-02-20T04:12:45.674Z,2.34
2023-02-20T04:17:47.954Z,2.02
2023-02-20T04:22:49.201Z,3.44
2023-02-20T04:27:45.475Z,2.84
2023-02-20T04:32:41.942Z,2.22
2023-02-20T04:37:39.946Z,2.5
2023-02-20T04:42:36.207Z,3.3599999999999994
2023-02-20T04:47:33.475Z,3.4799999999999995
2023-02-20T04:52:29.737Z,3.22
2023-02-20T04:57:26.003Z,7.5200000000000005
2023-02-20T05:02:22.281Z,6.9
2023-02-20T05:07:19.488Z,7.659999999999999
2023-02-20T05:12:14.787Z,8.22
2023-02-20T05:17:12.001Z,12.419999999999998
2023-02-20T05:22:09.324Z,10.719999999999999
2023-02-20T05:27:05.573Z,14.440000000000001
2023-02-20T05:32:01.802Z,4.959999999999999
2023-02-20T05:36:58.049Z,9.18
2023-02-20T05:41:54.320Z,15.020000000000001
2023-02-20T05:46:50.575Z,12.38
2023-02-20T05:51:50.819Z,10.320000000000002
2023-02-20T05:56:47.072Z,7.660000000000001
2023-02-20T06:01:48.311Z,5.18
2023-02-20T06:06:44.589Z,5.199999999999999
2023-02-20T06:11:41.888Z,6.959999999999999
2023-02-20T06:16:38.086Z,11.719999999999999
2023-02-20T06:21:34.391Z,12.919999999999998
2023-02-20T06:26:30.623Z,7.24
2023-02-20T06:31:28.065Z,10.559999999999999
2023-02-20T06:36:25.148Z,22.44
2023-02-20T06:41:20.415Z,17.839999999999996
2023-02-20T06:46:16.728Z,33.16
2023-02-20T06:51:13.024Z,23.98
2023-02-20T06:56:10.508Z,17.080000000000002
2023-02-20T07:01:06.491Z,34.62
2023-02-20T07:06:02.730Z,210.6
2023-02-20T07:10:58.966Z,113.97999999999999
2023-02-20T07:15:55.233Z,10.76
2023-02-20T07:20:53.523Z,11.98
2023-02-20T07:25:50.716Z,12.540000000000001
2023-02-20T07:30:47.007Z,24.440000000000005
2023-02-20T07:35:42.251Z,20.72
2023-02-20T07:40:40.017Z,5.42
2023-02-20T07:45:36.798Z,13.639999999999997
2023-02-20T07:50:33.093Z,19.62
2023-02-20T07:55:29.293Z,6.380000000000001
2023-02-20T08:00:26.563Z,5.88
2023-02-20T08:05:22.853Z,5.76
2023-02-20T08:10:21.089Z,9.86
2023-02-20T08:15:17.310Z,5.319999999999999
2023-02-20T08:20:12.587Z,3.1399999999999997
2023-02-20T08:25:08.835Z,3.0799999999999996
2023-02-20T08:30:06.148Z,3.8400000000000007
2023-02-20T08:35:02.361Z,4.38
2023-02-20T08:39:58.635Z,4.220000000000001
2023-02-20T08:44:54.903Z,3.1199999999999997
2023-02-20T08:49:51.124Z,3.54
2023-02-20T08:54:49.698Z,4.159999999999999
2023-02-20T08:59:46.626Z,3.04
2023-02-20T09:04:42.908Z,3.78
2023-02-20T09:09:39.197Z,3.22
2023-02-20T09:14:35.429Z,3.62
2023-02-20T09:19:31.758Z,3
2023-02-20T09:24:27.944Z,1.94
2023-02-20T09:29:24.184Z,2.4799999999999995
2023-02-20T09:34:20.486Z,4.06
2023-02-20T09:39:16.721Z,2.1399999999999997
2023-02-20T09:44:21.993Z,1.7
2023-02-20T09:49:25.240Z,3.5200000000000005
2023-02-20T09:54:27.439Z,2.88
2023-02-20T09:59:29.717Z,4
2023-02-20T10:04:29.920Z,3.56
2023-02-20T10:09:26.208Z,3.4200000000000004
2023-02-20T10:14:34.470Z,4.02
2023-02-20T10:19:40.678Z,2.7600000000000002
2023-02-20T10:24:45.896Z,3.2
2023-02-20T10:29:46.183Z,3.7600000000000002
2023-02-20T10:34:47.410Z,4.140000000000001
2023-02-20T10:39:48.658Z,8.280000000000001
2023-02-20T10:44:52.594Z,4.24
2023-02-20T10:49:53.137Z,7.1
2023-02-20T10:54:54.384Z,2.12
2023-02-20T10:59:54.618Z,3.5
2023-02-20T11:04:55.895Z,2.2600000000000002
2023-02-20T11:09:52.144Z,2.74
2023-02-20T11:14:54.375Z,1.2399999999999998
2023-02-20T11:19:53.738Z,1.42
2023-02-20T11:24:51.909Z,1.7
2023-02-20T11:29:51.151Z,1.54
2023-02-20T11:34:55.412Z,2.78
2023-02-20T11:39:53.678Z,2.5799999999999996
2023-02-20T11:44:57.919Z,2.3
2023-02-20T11:50:18.397Z,2.08
2023-02-20T11:55:11.339Z,1.6600000000000001
2023-02-20T12:00:11.634Z,2
2023-02-20T12:05:10.961Z,1.9
2023-02-20T12:10:15.117Z,9.28
2023-02-20T12:15:12.346Z,7
2023-02-20T12:20:16.562Z,2.32
2023-02-20T12:25:23.829Z,5.499999999999999
2023-02-20T12:30:32.171Z,3.2599999999999993
2023-02-20T12:35:36.303Z,4.8
2023-02-20T12:40:45.506Z,3.4200000000000004
2023-02-20T12:45:51.768Z,3.46
2023-02-20T12:51:01.978Z,4.44
2023-02-20T12:56:08.239Z,3.6799999999999997
2023-02-20T13:01:06.556Z,3.9799999999999995
2023-02-20T13:06:04.765Z,3.0599999999999996
2023-02-20T13:11:05.003Z,3.4
2023-02-20T13:16:10.259Z,2.7600000000000002
2023-02-20T13:21:11.520Z,2.5200000000000005
2023-02-20T13:26:14.877Z,2.5
2023-02-20T13:31:14.033Z,2.7400000000000007
2023-02-20T13:36:19.389Z,3.78
2023-02-20T13:41:16.569Z,2.6399999999999997
2023-02-20T13:46:15.353Z,5.7
2023-02-20T13:51:21.994Z,2.9
2023-02-20T13:56:19.193Z,8.66
2023-02-20T14:01:18.500Z,10.66
2023-02-20T14:06:15.992Z,12.66
2023-02-20T14:11:12.969Z,16.04
2023-02-20T14:16:24.250Z,32.480000000000004
2023-02-20T14:21:21.456Z,14.419999999999998
2023-02-20T14:26:23.730Z,8
2023-02-20T14:31:26.032Z,9.92
2023-02-20T14:36:42.177Z,6.220000000000001
2023-02-20T14:41:49.419Z,6.339999999999999
2023-02-20T14:46:53.624Z,6.139999999999999
2023-02-20T14:51:59.871Z,5.540000000000001
2023-02-20T14:56:56.092Z,6.540000000000001
2023-02-20T15:01:58.332Z,8.379999999999999
2023-02-20T15:06:59.644Z,13.4
2023-02-20T15:11:58.353Z,13.959999999999999
2023-02-20T15:17:06.192Z,13.080000000000002
2023-02-20T15:22:05.361Z,20.5
2023-02-20T15:27:08.624Z,12.16
2023-02-20T15:32:05.919Z,19
2023-02-20T15:37:02.119Z,11.98
2023-02-20T15:41:59.501Z,13.26
2023-02-20T15:46:56.610Z,12.920000000000002
2023-02-20T15:51:58.815Z,17.359999999999996
2023-02-20T15:56:55.168Z,13.3
2023-02-20T16:01:51.480Z,20.139999999999997
2023-02-20T16:06:47.688Z,28.02
2023-02-20T16:11:45.894Z,55.980000000000004
2023-02-20T16:16:51.214Z,37.059999999999995
2023-02-20T16:21:58.681Z,30.46
2023-02-20T16:26:52.623Z,25.959999999999997
2023-02-20T16:31:58.927Z,37.12
2023-02-20T16:36:55.139Z,26.639999999999997
2023-02-20T16:41:51.392Z,29.380000000000003
2023-02-20T16:46:47.644Z,38.44
2023-02-20T16:51:43.911Z,41.08
2023-02-20T16:56:40.177Z,34.81999999999999
2023-02-20T17:01:37.537Z,33.160000000000004
2023-02-20T17:06:32.740Z,26.4
2023-02-20T17:11:28.982Z,18.979999999999997
2023-02-20T17:16:31.419Z,18.68
2023-02-20T17:21:26.476Z,17.32
2023-02-20T17:26:22.709Z,27.68
2023-02-20T17:31:19.062Z,32.82
2023-02-20T17:36:15.544Z,18.22
2023-02-20T17:41:10.503Z,19.580000000000002
2023-02-20T17:46:06.785Z,25.16
2023-02-20T17:51:02.016Z,31.139999999999997
2023-02-20T17:55:58.254Z,26.619999999999997
2023-02-20T18:00:54.646Z,27.1
2023-02-20T18:05:50.788Z,48.99999999999999
2023-02-20T18:10:47.025Z,45.4
2023-02-20T18:15:43.358Z,30.7
2023-02-20T18:20:39.574Z,31.360000000000003
2023-02-20T18:25:40.824Z,27.28
2023-02-20T18:30:37.168Z,41.839999999999996
2023-02-20T18:35:33.338Z,51.019999999999996
2023-02-20T18:40:29.609Z,54.02
2023-02-20T18:45:25.881Z,55.1
2023-02-20T18:50:22.118Z,53.1
2023-02-20T18:55:18.385Z,35.980000000000004
2023-02-20T19:00:16.618Z,46.440000000000005
2023-02-20T19:05:12.926Z,43.199999999999996
2023-02-20T19:10:10.143Z,34.16
2023-02-20T19:15:07.431Z,37.96
2023-02-20T19:20:04.658Z,28.859999999999996
2023-02-20T19:25:00.928Z,38.08
2023-02-20T19:29:57.219Z,29.199999999999996
2023-02-20T19:34:53.491Z,24.82
2023-02-20T19:39:49.753Z,26.1
2023-02-20T19:44:45.959Z,20.32
2023-02-20T19:49:44.184Z,18.06
2023-02-20T19:54:43.472Z,23.3
2023-02-20T19:59:39.743Z,20.240000000000002
2023-02-20T20:04:35.964Z,20.02
2023-02-20T20:09:37.462Z,25.639999999999997
2023-02-20T20:14:33.467Z,24.18
2023-02-20T20:19:29.768Z,29.839999999999996
2023-02-20T20:24:25.986Z,22.64
2023-02-20T20:29:22.305Z,18.619999999999997
2023-02-20T20:34:18.535Z,16.919999999999998
2023-02-20T20:39:14.812Z,17.580000000000002
2023-02-20T20:44:14.065Z,15.88
2023-02-20T20:49:11.329Z,16.919999999999998
2023-02-20T20:54:07.579Z,13.379999999999999
2023-02-20T20:59:03.853Z,13.84
2023-02-20T21:04:00.110Z,11.84
2023-02-20T21:08:56.347Z,12.12
2023-02-20T21:13:52.638Z,11.62
2023-02-20T21:18:48.853Z,10.18
2023-02-20T21:23:45.167Z,10.919999999999998
2023-02-20T21:28:41.426Z,16.44
2023-02-20T21:33:37.661Z,13.460000000000003
2023-02-20T21:38:33.991Z,13.020000000000001
2023-02-20T21:43:30.130Z,12.6
2023-02-20T21:48:26.434Z,11.440000000000001
2023-02-20T21:53:22.660Z,10.46
2023-02-20T21:58:18.947Z,9.42
2023-02-20T22:03:15.229Z,7.720000000000001
2023-02-20T22:08:11.485Z,7.56
2023-02-20T22:13:07.746Z,9.4
2023-02-20T22:18:03.981Z,8.72
2023-02-20T22:23:00.247Z,9.14
2023-02-20T22:27:56.479Z,6.56
2023-02-20T22:32:51.815Z,7.959999999999999
2023-02-20T22:37:47.021Z,6.92
2023-02-20T22:42:43.287Z,7.139999999999999
2023-02-20T22:47:39.590Z,6.5
2023-02-20T22:52:35.814Z,6.8
2023-02-20T22:57:32.052Z,6.7
2023-02-20T23:02:28.312Z,6.220000000000001
2023-02-20T23:07:27.593Z,6.42
2023-02-20T23:12:22.833Z,6.38
2023-02-20T23:17:32.978Z,5.9399999999999995
2023-02-20T23:22:20.358Z,5.6
2023-02-20T23:27:16.600Z,6.32
2023-02-20T23:32:13.974Z,5.6
2023-02-20T23:37:10.131Z,6.42
2023-02-20T23:42:06.369Z,6.04
2023-02-20T23:47:02.653Z,6.9
2023-02-20T23:52:02.697Z,7
